createdAt,value
2017-11-15T00:01:59.286Z,22.20
2017-11-15T00:04:27.584Z,21.90
2017-11-15T00:06:55.141Z,25.97
2017-11-15T00:09:22.667Z,21.93
2017-11-15T00:11:50.252Z,23.50
2017-11-15T00:14:17.763Z,25.97
2017-11-15T00:16:46.110Z,26.73
2017-11-15T00:19:13.622Z,22.40
2017-11-15T00:21:41.909Z,24.50
2017-11-15T00:24:09.493Z,22.37
2017-11-15T00:26:37.052Z,22.73
2017-11-15T00:29:04.556Z,22.80
2017-11-15T00:31:32.885Z,24.07
2017-11-15T00:34:00.409Z,20.80
2017-11-15T00:36:28.678Z,22.80
2017-11-15T00:38:56.227Z,22.00
2017-11-15T00:41:23.745Z,21.53
2017-11-15T00:43:51.315Z,23.80
2017-11-15T00:46:18.823Z,25.90
2017-11-15T00:48:47.128Z,24.50
2017-11-15T00:51:14.662Z,20.87
2017-11-15T00:53:42.942Z,27.53
2017-11-15T00:56:10.488Z,19.40
2017-11-15T00:58:38.757Z,21.40
2017-11-15T01:01:07.153Z,28.53
2017-11-15T01:03:34.735Z,28.07
2017-11-15T01:06:02.240Z,25.23
2017-11-15T01:08:30.543Z,23.03
2017-11-15T01:10:58.091Z,18.97
2017-11-15T01:13:26.364Z,20.13
2017-11-15T01:15:53.894Z,16.93
2017-11-15T01:18:21.403Z,28.97
2017-11-15T01:20:48.989Z,22.73
2017-11-15T01:23:16.516Z,28.73
2017-11-15T01:25:44.036Z,25.50
2017-11-15T01:28:11.561Z,27.90
2017-11-15T01:30:39.081Z,35.70
2017-11-15T01:33:06.593Z,43.37
2017-11-15T01:35:34.126Z,36.67
2017-11-15T01:38:01.665Z,34.73
2017-11-15T01:40:29.184Z,37.27
2017-11-15T01:42:56.741Z,36.30
2017-11-15T01:45:25.022Z,31.03
2017-11-15T01:47:53.323Z,35.83
2017-11-15T01:50:20.830Z,21.97
2017-11-15T01:52:48.335Z,20.30
2017-11-15T01:55:15.865Z,27.73
2017-11-15T01:57:43.362Z,25.27
2017-11-15T02:00:10.900Z,24.63
2017-11-15T02:02:38.399Z,29.50
2017-11-15T02:05:05.922Z,24.80
2017-11-15T02:07:34.198Z,25.23
2017-11-15T02:10:01.729Z,24.00
2017-11-15T02:12:30.029Z,24.40
2017-11-15T02:14:57.529Z,23.40
2017-11-15T02:17:25.058Z,19.30
2017-11-15T02:19:52.573Z,28.20
2017-11-15T02:22:20.112Z,23.17
2017-11-15T02:24:47.660Z,20.10
2017-11-15T02:27:15.162Z,18.33
2017-11-15T02:29:43.452Z,22.80
2017-11-15T02:32:11.014Z,21.60
2017-11-15T02:34:38.537Z,18.53
2017-11-15T02:37:06.060Z,22.77
2017-11-15T02:39:33.585Z,21.17
2017-11-15T02:42:01.169Z,21.60
2017-11-15T02:44:28.690Z,24.17
2017-11-15T02:46:56.995Z,29.17
2017-11-15T02:49:24.519Z,22.70
2017-11-15T02:51:52.818Z,27.20
2017-11-15T02:54:20.377Z,23.80
2017-11-15T02:56:47.937Z,28.70
2017-11-15T02:59:15.485Z,16.80
2017-11-15T03:01:43.015Z,24.37
2017-11-15T03:04:10.607Z,23.03
2017-11-15T03:06:38.143Z,21.70
2017-11-15T03:09:06.451Z,28.33
2017-11-15T03:11:33.986Z,21.53
2017-11-15T03:14:02.282Z,18.63
2017-11-15T03:16:29.842Z,25.67
2017-11-15T03:18:57.369Z,24.50
2017-11-15T03:21:25.647Z,27.50
2017-11-15T03:23:53.951Z,24.37
2017-11-15T03:26:21.453Z,27.50
2017-11-15T03:28:48.986Z,22.83
2017-11-15T03:31:16.480Z,19.97
2017-11-15T03:33:44.009Z,31.63
2017-11-15T03:36:11.523Z,24.10
2017-11-15T03:38:39.048Z,23.93
2017-11-15T03:41:06.545Z,20.80
2017-11-15T03:43:34.079Z,19.97
2017-11-15T03:46:02.353Z,23.53
2017-11-15T03:48:30.649Z,25.83
2017-11-15T03:50:58.169Z,19.00
2017-11-15T03:53:25.769Z,23.50
2017-11-15T03:55:53.293Z,22.23
2017-11-15T03:58:20.818Z,24.17
2017-11-15T04:00:48.346Z,25.13
2017-11-15T04:03:15.915Z,21.30
2017-11-15T04:05:43.452Z,21.00
2017-11-15T04:08:10.949Z,21.03
2017-11-15T04:10:38.446Z,18.07
2017-11-15T04:13:05.983Z,25.30
2017-11-15T04:15:33.494Z,23.50
2017-11-15T04:18:01.025Z,22.17
2017-11-15T04:20:29.339Z,21.47
2017-11-15T04:22:56.897Z,24.70
2017-11-15T04:25:24.430Z,30.53
2017-11-15T04:27:51.943Z,22.03
2017-11-15T04:30:19.504Z,19.33
2017-11-15T04:32:47.119Z,19.43
2017-11-15T04:35:14.630Z,24.10
2017-11-15T04:37:42.155Z,30.60
2017-11-15T04:40:09.722Z,20.80
2017-11-15T04:42:37.254Z,25.60
2017-11-15T04:45:04.760Z,23.63
2017-11-15T04:47:32.290Z,22.20
2017-11-15T04:49:59.816Z,17.70
2017-11-15T04:52:27.385Z,22.03
2017-11-15T04:54:54.893Z,28.13
2017-11-15T04:57:22.407Z,22.67
2017-11-15T04:59:49.921Z,17.27
2017-11-15T05:02:18.182Z,23.37
2017-11-15T05:04:45.778Z,26.90
2017-11-15T05:07:13.284Z,26.13
2017-11-15T05:09:40.818Z,22.50
2017-11-15T05:12:08.328Z,23.30
2017-11-15T05:14:36.593Z,25.23
2017-11-15T05:17:04.124Z,21.37
2017-11-15T05:19:31.634Z,20.10
2017-11-15T05:22:00.025Z,19.63
2017-11-15T05:24:27.586Z,21.47
2017-11-15T05:26:55.090Z,21.50
2017-11-15T05:29:22.617Z,20.87
2017-11-15T05:31:50.144Z,20.97
2017-11-15T05:34:18.449Z,22.53
2017-11-15T05:36:45.981Z,19.63
2017-11-15T05:39:14.254Z,21.03
2017-11-15T05:41:41.806Z,24.10
2017-11-15T05:44:10.074Z,26.30
2017-11-15T05:46:38.370Z,21.63
2017-11-15T05:49:05.915Z,19.87
2017-11-15T05:51:33.449Z,24.27
2017-11-15T05:54:00.959Z,19.20
2017-11-15T05:56:28.518Z,17.33
2017-11-15T05:58:56.045Z,18.73
2017-11-15T06:01:24.304Z,24.10
2017-11-15T06:03:51.813Z,20.43
2017-11-15T06:06:19.342Z,13.30
2017-11-15T06:08:46.913Z,18.27
2017-11-15T06:11:14.516Z,17.25
2017-11-15T06:13:42.733Z,15.03
2017-11-15T06:16:11.160Z,17.23
2017-11-15T06:18:38.659Z,13.55
2017-11-15T06:21:06.193Z,22.60
2017-11-15T06:23:33.769Z,14.83
2017-11-15T06:26:01.951Z,22.10
2017-11-15T06:28:30.265Z,20.65
2017-11-15T06:30:57.806Z,21.62
2017-11-15T06:33:26.113Z,16.70
2017-11-15T06:35:53.632Z,25.17
2017-11-15T06:38:22.013Z,21.15
2017-11-15T06:40:49.522Z,25.23
2017-11-15T06:43:17.039Z,17.77
2017-11-15T06:45:44.595Z,21.90
2017-11-15T06:48:12.102Z,20.97
2017-11-15T06:50:39.640Z,22.83
2017-11-15T06:53:07.141Z,26.87
2017-11-15T06:55:35.454Z,19.90
2017-11-15T06:58:02.949Z,19.07
2017-11-15T07:00:30.502Z,20.60
2017-11-15T07:02:58.045Z,24.67
2017-11-15T07:05:25.555Z,19.27
2017-11-15T07:07:53.869Z,21.30
2017-11-15T07:10:21.391Z,16.33
2017-11-15T07:12:49.715Z,23.90
2017-11-15T07:15:17.452Z,23.40
2017-11-15T07:17:45.109Z,27.52
2017-11-15T07:20:12.627Z,30.13
2017-11-15T07:22:40.222Z,25.60
2017-11-15T07:25:07.760Z,24.97
2017-11-15T07:27:36.030Z,28.27
2017-11-15T07:30:04.314Z,22.97
2017-11-15T07:32:31.845Z,33.53
2017-11-15T07:34:59.352Z,24.87
2017-11-15T07:37:26.886Z,31.27
2017-11-15T07:39:55.200Z,30.20
2017-11-15T07:42:22.741Z,34.17
2017-11-15T07:44:50.249Z,36.47
2017-11-15T07:47:17.779Z,36.67
2017-11-15T07:49:45.306Z,32.20
2017-11-15T07:52:12.797Z,32.90
2017-11-15T07:54:40.366Z,38.03
2017-11-15T07:57:07.886Z,33.40
2017-11-15T07:59:35.411Z,34.97
2017-11-15T08:02:03.708Z,29.77
2017-11-15T08:04:31.233Z,33.20
2017-11-15T08:06:58.750Z,29.87
2017-11-15T08:09:26.295Z,34.63
2017-11-15T08:11:53.855Z,41.70
2017-11-15T08:14:21.379Z,39.90
2017-11-15T08:16:49.672Z,33.23
2017-11-15T08:19:17.179Z,37.23
2017-11-15T08:21:44.805Z,36.00
2017-11-15T08:24:12.358Z,39.05
2017-11-15T08:26:39.865Z,33.50
2017-11-15T08:29:07.391Z,33.47
2017-11-15T08:31:34.942Z,34.07
2017-11-15T08:34:02.497Z,33.43
2017-11-15T08:36:30.651Z,36.57
2017-11-15T08:38:58.177Z,35.30
2017-11-15T08:41:25.787Z,35.13
2017-11-15T08:43:53.321Z,26.33
2017-11-15T08:46:21.593Z,33.30
2017-11-15T08:48:49.898Z,37.57
2017-11-15T08:51:17.426Z,35.90
2017-11-15T08:53:45.833Z,32.43
2017-11-15T08:56:13.378Z,35.47
2017-11-15T08:58:40.916Z,37.10
2017-11-15T09:01:09.217Z,36.20
2017-11-15T09:03:36.717Z,37.87
2017-11-15T09:06:04.346Z,28.80
2017-11-15T09:08:31.992Z,35.23
2017-11-15T09:10:59.503Z,38.97
2017-11-15T09:13:27.019Z,31.83
2017-11-15T09:15:54.545Z,41.10
2017-11-15T09:18:22.866Z,36.97
2017-11-15T09:20:50.506Z,35.30
2017-11-15T09:23:18.016Z,34.73
2017-11-15T09:25:45.553Z,37.27
2017-11-15T09:28:13.066Z,36.80
2017-11-15T09:30:40.591Z,37.07
2017-11-15T09:33:08.193Z,30.17
2017-11-15T09:35:35.697Z,33.47
2017-11-15T09:38:03.216Z,28.83
2017-11-15T09:40:30.749Z,31.17
2017-11-15T09:42:59.040Z,30.47
2017-11-15T09:45:26.572Z,33.03
2017-11-15T09:47:54.845Z,32.20
2017-11-15T09:50:25.690Z,26.10
2017-11-15T09:52:53.201Z,31.10
2017-11-15T09:55:20.821Z,29.10
2017-11-15T09:57:48.342Z,27.60
2017-11-15T10:00:15.841Z,24.03
2017-11-15T10:02:43.405Z,26.93
2017-11-15T10:05:10.913Z,27.03
2017-11-15T10:07:38.411Z,24.63
2017-11-15T10:10:05.978Z,23.77
2017-11-15T10:12:33.538Z,23.70
2017-11-15T10:15:01.102Z,23.47
2017-11-15T10:17:28.654Z,27.13
2017-11-15T10:19:56.159Z,26.50
2017-11-15T10:22:23.672Z,24.43
2017-11-15T10:24:51.198Z,22.53
2017-11-15T10:27:19.535Z,24.47
2017-11-15T10:29:47.039Z,23.43
2017-11-15T10:32:15.361Z,30.47
2017-11-15T10:34:42.858Z,23.53
2017-11-15T10:37:11.166Z,26.93
2017-11-15T10:39:38.719Z,24.23
2017-11-15T10:42:06.234Z,22.03
2017-11-15T10:44:33.761Z,21.27
2017-11-15T10:47:01.269Z,22.93
2017-11-15T10:49:29.573Z,22.63
2017-11-15T10:51:57.124Z,25.03
2017-11-15T10:54:24.629Z,23.30
2017-11-15T10:56:52.171Z,21.83
2017-11-15T10:59:19.698Z,18.90
2017-11-15T11:01:47.266Z,20.87
2017-11-15T11:04:14.778Z,23.63
2017-11-15T11:06:42.293Z,26.47
2017-11-15T11:09:09.846Z,19.07
2017-11-15T11:11:37.365Z,23.07
2017-11-15T11:14:05.671Z,22.03
2017-11-15T11:16:33.183Z,24.63
2017-11-15T11:19:00.781Z,19.77
2017-11-15T11:21:29.208Z,21.77
2017-11-15T11:23:56.732Z,19.20
2017-11-15T11:26:24.290Z,20.47
2017-11-15T11:28:51.805Z,22.67
2017-11-15T11:31:20.124Z,22.43
2017-11-15T11:33:47.722Z,19.90
2017-11-15T11:36:15.232Z,15.50
2017-11-15T11:38:42.773Z,19.80
2017-11-15T11:41:11.051Z,24.03
2017-11-15T11:43:38.615Z,24.93
2017-11-15T11:46:06.144Z,18.37
2017-11-15T11:48:34.430Z,19.60
2017-11-15T11:51:02.828Z,22.27
2017-11-15T11:53:30.383Z,26.40
2017-11-15T11:55:57.919Z,24.03
2017-11-15T11:58:26.226Z,23.73
2017-11-15T12:00:53.758Z,25.40
2017-11-15T12:03:21.314Z,22.10
2017-11-15T12:05:49.582Z,22.37
2017-11-15T12:08:17.878Z,24.23
2017-11-15T12:10:46.170Z,22.10
2017-11-15T12:13:13.686Z,21.30
2017-11-15T12:15:41.223Z,19.63
2017-11-15T12:18:08.739Z,20.50
2017-11-15T12:20:36.294Z,20.53
2017-11-15T12:23:03.804Z,20.10
2017-11-15T12:25:31.313Z,20.63
2017-11-15T12:27:58.845Z,21.60
2017-11-15T12:30:27.160Z,20.27
2017-11-15T12:32:54.716Z,21.03
2017-11-15T12:35:22.230Z,21.13
2017-11-15T12:37:49.735Z,21.50
2017-11-15T12:40:17.275Z,22.17
2017-11-15T12:42:44.803Z,21.30
2017-11-15T12:45:13.099Z,23.63
2017-11-15T12:47:41.365Z,22.10
2017-11-15T12:50:09.787Z,19.20
2017-11-15T12:52:37.306Z,18.83
2017-11-15T12:55:05.596Z,20.13
2017-11-15T12:57:33.171Z,19.00
2017-11-15T13:00:00.722Z,17.83
2017-11-15T13:02:28.252Z,17.27
2017-11-15T13:04:56.557Z,16.20
2017-11-15T13:07:24.077Z,16.57
2017-11-15T13:09:52.369Z,17.80
2017-11-15T13:12:19.873Z,17.27
2017-11-15T13:14:47.407Z,18.73
2017-11-15T13:17:14.916Z,17.10
2017-11-15T13:19:42.450Z,17.17
2017-11-15T13:22:09.950Z,15.70
2017-11-15T13:24:38.316Z,17.43
2017-11-15T13:27:05.876Z,16.77
2017-11-15T13:29:33.466Z,18.27
2017-11-15T13:32:01.040Z,19.40
2017-11-15T13:34:28.539Z,16.77
2017-11-15T13:36:56.072Z,16.83
2017-11-15T13:39:23.628Z,14.87
2017-11-15T13:41:51.173Z,14.40
2017-11-15T13:44:18.717Z,15.90
2017-11-15T13:46:46.223Z,15.17
2017-11-15T13:49:13.777Z,14.30
2017-11-15T13:51:41.339Z,15.43
2017-11-15T13:54:08.849Z,16.10
2017-11-15T13:56:36.409Z,16.07
2017-11-15T13:59:03.935Z,16.17
2017-11-15T14:01:32.243Z,16.83
2017-11-15T14:03:59.754Z,14.63
2017-11-15T14:06:28.794Z,13.73
2017-11-15T14:08:56.336Z,13.37
2017-11-15T14:11:24.603Z,15.87
2017-11-15T14:13:52.165Z,14.07
2017-11-15T14:16:20.444Z,14.30
2017-11-15T14:18:48.767Z,12.50
2017-11-15T14:21:16.308Z,15.33
2017-11-15T14:23:43.816Z,14.53
2017-11-15T14:26:12.142Z,13.00
2017-11-15T14:28:39.675Z,13.57
2017-11-15T14:31:07.942Z,14.23
2017-11-15T14:33:36.241Z,13.77
2017-11-15T14:36:04.018Z,14.30
2017-11-15T14:38:31.654Z,14.87
2017-11-15T14:40:59.165Z,13.67
2017-11-15T14:43:26.717Z,13.20
2017-11-15T14:45:54.222Z,13.70
2017-11-15T14:48:21.730Z,13.17
2017-11-15T14:50:49.266Z,11.30
2017-11-15T14:53:16.767Z,13.77
2017-11-15T14:55:45.066Z,12.10
2017-11-15T14:58:13.372Z,12.17
2017-11-15T15:00:40.933Z,11.73
2017-11-15T15:03:08.458Z,10.90
2017-11-15T15:05:36.723Z,11.13
2017-11-15T15:08:05.051Z,12.60
2017-11-15T15:10:32.560Z,13.60
2017-11-15T15:13:00.823Z,12.97
2017-11-15T15:15:29.143Z,12.37
2017-11-15T15:17:56.697Z,13.07
2017-11-15T15:20:24.214Z,13.97
2017-11-15T15:22:52.491Z,12.00
2017-11-15T15:25:20.806Z,13.07
2017-11-15T15:27:48.321Z,11.97
2017-11-15T15:30:16.645Z,14.87
2017-11-15T15:32:44.190Z,14.30
2017-11-15T15:35:11.715Z,13.83
2017-11-15T15:37:39.287Z,13.03
2017-11-15T15:40:07.582Z,13.67
2017-11-15T15:42:35.100Z,13.23
2017-11-15T15:45:03.406Z,15.00
2017-11-15T15:47:30.942Z,13.00
2017-11-15T15:49:59.241Z,16.47
2017-11-15T15:52:26.812Z,14.17
2017-11-15T15:54:54.346Z,14.20
2017-11-15T15:57:22.659Z,14.70
2017-11-15T15:59:50.165Z,15.43
2017-11-15T16:02:18.466Z,14.53
2017-11-15T16:04:46.038Z,16.67
2017-11-15T16:07:13.587Z,15.80
2017-11-15T16:09:41.107Z,19.60
2017-11-15T16:12:09.523Z,19.30
2017-11-15T16:14:37.095Z,17.90
2017-11-15T16:17:04.653Z,16.67
2017-11-15T16:19:32.202Z,17.40
2017-11-15T16:21:59.765Z,17.50
2017-11-15T16:24:27.298Z,17.70
2017-11-15T16:26:55.582Z,18.50
2017-11-15T16:29:23.916Z,21.03
2017-11-15T16:31:51.419Z,17.13
2017-11-15T16:34:18.938Z,18.80
2017-11-15T16:36:46.471Z,21.50
2017-11-15T16:39:14.606Z,19.50
2017-11-15T16:41:42.181Z,17.77
2017-11-15T16:44:09.726Z,19.10
2017-11-15T16:46:37.242Z,18.07
2017-11-15T16:49:04.805Z,19.70
2017-11-15T16:51:32.313Z,23.17
2017-11-15T16:53:59.819Z,24.17
2017-11-15T16:56:27.364Z,18.73
2017-11-15T16:58:54.992Z,17.87
2017-11-15T17:01:22.538Z,22.17
2017-11-15T17:03:50.070Z,29.33
2017-11-15T17:06:18.409Z,23.70
2017-11-15T17:08:45.933Z,19.40
2017-11-15T17:11:13.449Z,20.23
2017-11-15T17:13:40.989Z,18.40
2017-11-15T17:16:08.498Z,19.00
2017-11-15T17:18:36.086Z,20.63
2017-11-15T17:21:03.655Z,21.20
2017-11-15T17:23:31.214Z,20.60
2017-11-15T17:25:58.851Z,24.30
2017-11-15T17:28:26.366Z,25.60
2017-11-15T17:30:53.909Z,21.97
2017-11-15T17:33:21.448Z,22.40
2017-11-15T17:35:49.011Z,22.00
2017-11-15T17:38:16.546Z,27.87
2017-11-15T17:40:44.052Z,25.77
2017-11-15T17:43:11.590Z,25.33
2017-11-15T17:45:39.114Z,25.63
2017-11-15T17:48:06.629Z,24.70
2017-11-15T17:50:34.166Z,23.93
2017-11-15T17:53:01.681Z,23.60
2017-11-15T17:55:29.220Z,23.83
2017-11-15T17:57:57.529Z,26.40
2017-11-15T18:00:25.086Z,22.40
2017-11-15T18:02:52.624Z,22.90
2017-11-15T18:05:20.139Z,23.07
2017-11-15T18:07:47.706Z,24.27
2017-11-15T18:10:15.231Z,22.93
2017-11-15T18:12:42.791Z,21.73
2017-11-15T18:15:10.388Z,33.63
2017-11-15T18:17:38.662Z,26.90
2017-11-15T18:20:06.991Z,27.77
2017-11-15T18:22:34.505Z,30.30
2017-11-15T18:25:02.816Z,32.37
2017-11-15T18:27:30.377Z,30.97
2017-11-15T18:29:57.988Z,29.13
2017-11-15T18:32:26.385Z,27.57
2017-11-15T18:34:54.383Z,22.70
2017-11-15T18:37:22.255Z,23.27
2017-11-15T18:39:50.225Z,25.50
2017-11-15T18:42:18.904Z,24.53
2017-11-15T18:44:46.870Z,19.90
2017-11-15T18:47:14.940Z,22.80
2017-11-15T18:49:42.908Z,24.47
2017-11-15T18:52:10.876Z,22.27
2017-11-15T18:54:38.852Z,29.47
2017-11-15T18:57:06.814Z,21.20
2017-11-15T18:59:34.883Z,22.37
2017-11-15T19:02:02.749Z,21.87
2017-11-15T19:04:30.716Z,26.30
2017-11-15T19:06:58.789Z,25.70
2017-11-15T19:09:26.964Z,23.53
2017-11-15T19:11:55.032Z,26.80
2017-11-15T19:14:23.001Z,26.40
2017-11-15T19:16:50.968Z,25.97
2017-11-15T19:19:18.940Z,24.33
2017-11-15T19:21:46.902Z,29.97
2017-11-15T19:24:14.873Z,30.53
2017-11-15T19:26:42.740Z,23.57
2017-11-15T19:29:10.713Z,25.17
2017-11-15T19:31:38.776Z,21.70
2017-11-15T19:34:06.845Z,20.37
2017-11-15T19:36:34.812Z,22.80
2017-11-15T19:39:03.512Z,21.30
2017-11-15T19:41:32.397Z,20.87
2017-11-15T19:44:00.356Z,18.87
2017-11-15T19:46:28.324Z,22.40
2017-11-15T19:48:56.298Z,20.20
2017-11-15T19:51:24.259Z,18.30
2017-11-15T19:53:52.133Z,21.60
2017-11-15T19:56:21.092Z,21.73
2017-11-15T19:58:49.912Z,21.60
2017-11-15T20:01:17.876Z,17.70
2017-11-15T20:03:45.843Z,20.03
2017-11-15T20:06:13.810Z,23.40
2017-11-15T20:08:41.882Z,20.00
2017-11-15T20:11:10.669Z,21.93
2017-11-15T20:13:38.639Z,18.00
2017-11-15T20:16:06.605Z,25.93
2017-11-15T20:18:34.785Z,20.07
2017-11-15T20:21:02.851Z,22.50
2017-11-15T20:23:31.635Z,19.67
2017-11-15T20:25:59.503Z,21.03
2017-11-15T20:28:27.478Z,23.87
2017-11-15T20:30:55.339Z,23.23
2017-11-15T20:33:23.207Z,23.70
2017-11-15T20:35:50.813Z,24.70
2017-11-15T20:38:19.121Z,26.20
2017-11-15T20:40:46.688Z,22.70
2017-11-15T20:43:14.206Z,21.07
2017-11-15T20:45:42.503Z,22.83
2017-11-15T20:48:10.807Z,19.70
2017-11-15T20:50:38.327Z,21.60
2017-11-15T20:53:06.641Z,25.20
2017-11-15T20:55:34.159Z,25.80
2017-11-15T20:58:02.509Z,24.43
2017-11-15T21:00:30.065Z,22.50
2017-11-15T21:02:57.612Z,23.90
2017-11-15T21:05:25.173Z,24.70
2017-11-15T21:07:52.805Z,19.67
2017-11-15T21:10:20.347Z,21.43
2017-11-15T21:12:47.906Z,29.17
2017-11-15T21:15:15.465Z,23.40
2017-11-15T21:17:43.045Z,22.33
2017-11-15T21:20:10.604Z,22.00
2017-11-15T21:22:38.153Z,22.47
2017-11-15T21:25:05.772Z,22.60
2017-11-15T21:27:33.315Z,22.53
2017-11-15T21:30:00.855Z,24.00
2017-11-15T21:32:28.414Z,25.97
2017-11-15T21:34:55.927Z,25.97
2017-11-15T21:37:23.454Z,27.33
2017-11-15T21:39:51.778Z,25.40
2017-11-15T21:42:19.326Z,26.17
2017-11-15T21:44:46.970Z,24.10
2017-11-15T21:47:14.545Z,23.80
2017-11-15T21:49:42.084Z,26.53
2017-11-15T21:52:10.447Z,22.83
2017-11-15T21:54:38.769Z,25.30
2017-11-15T21:57:06.323Z,22.47
2017-11-15T21:59:33.856Z,28.60
2017-11-15T22:02:02.174Z,22.40
2017-11-15T22:04:29.716Z,24.60
2017-11-15T22:06:57.273Z,25.60
2017-11-15T22:09:24.822Z,23.43
2017-11-15T22:11:52.368Z,24.50
2017-11-15T22:14:20.674Z,24.90
2017-11-15T22:16:48.182Z,24.20
2017-11-15T22:19:15.809Z,27.20
2017-11-15T22:21:43.428Z,24.80
2017-11-15T22:24:10.954Z,25.30
2017-11-15T22:26:38.682Z,27.87
2017-11-15T22:29:06.357Z,27.67
2017-11-15T22:31:33.963Z,28.90
2017-11-15T22:34:02.241Z,25.20
2017-11-15T22:36:30.523Z,28.60
2017-11-15T22:38:58.106Z,24.90
2017-11-15T22:41:25.645Z,27.20
2017-11-15T22:43:53.222Z,31.17
2017-11-15T22:46:20.750Z,27.07
2017-11-15T22:48:49.178Z,27.73
2017-11-15T22:51:17.581Z,28.00
2017-11-15T22:53:45.182Z,29.50
2017-11-15T22:56:12.737Z,27.70
2017-11-15T22:58:40.317Z,26.60
2017-11-15T23:01:08.028Z,26.17
2017-11-15T23:03:36.358Z,26.23
2017-11-15T23:06:04.238Z,26.50
2017-11-15T23:08:31.871Z,28.50
2017-11-15T23:10:59.377Z,28.60
2017-11-15T23:13:26.902Z,27.70
2017-11-15T23:15:54.434Z,31.60
2017-11-15T23:18:22.718Z,29.13
2017-11-15T23:20:50.258Z,30.60
2017-11-15T23:23:17.838Z,29.63
2017-11-15T23:25:45.357Z,22.37
2017-11-15T23:28:13.660Z,27.33
2017-11-15T23:30:41.174Z,30.23
2017-11-15T23:33:08.712Z,28.80
2017-11-15T23:35:36.265Z,32.50
2017-11-15T23:38:03.910Z,32.17
2017-11-15T23:40:31.439Z,32.40
2017-11-15T23:42:58.974Z,32.37
2017-11-15T23:45:26.480Z,31.40
2017-11-15T23:47:54.011Z,28.77
2017-11-15T23:50:22.401Z,29.67
2017-11-15T23:52:49.917Z,34.43
2017-11-15T23:55:18.243Z,30.40
2017-11-15T23:57:45.771Z,30.90
